createdAt,value
2022-10-22T00:01:40.735Z,99903.97
2022-10-22T00:07:47.683Z,99908.91
2022-10-22T00:10:50.522Z,99908.72
2022-10-22T00:13:55.051Z,99896.09
2022-10-22T00:17:00.912Z,99908.72
2022-10-22T00:20:04.001Z,99890.97
2022-10-22T00:23:07.180Z,99878.34
2022-10-22T00:26:10.387Z,99872.97
2022-10-22T00:29:14.685Z,99859.00
2022-10-22T00:32:17.806Z,99846.84
2022-10-22T00:35:20.501Z,99853.06
2022-10-22T00:38:23.694Z,99845.09
2022-10-22T00:41:26.435Z,99829.97
2022-10-22T00:45:07.378Z,99848.00
2022-10-22T00:48:13.248Z,99868.00
2022-10-22T00:51:16.984Z,99879.72
2022-10-22T00:54:20.089Z,99889.53
2022-10-22T00:57:23.854Z,99900.41
2022-10-22T01:00:28.431Z,99893.44
2022-10-22T01:03:32.779Z,99911.50
2022-10-22T01:06:35.811Z,99917.91
2022-10-22T01:09:44.328Z,99916.81
2022-10-22T01:12:56.375Z,99909.53
2022-10-22T01:16:07.323Z,99911.50
2022-10-22T01:19:26.921Z,99903.53
2022-10-22T01:22:33.348Z,99885.16
2022-10-22T01:25:38.949Z,99878.28
2022-10-22T01:28:57.326Z,99874.50
2022-10-22T01:32:03.744Z,99875.75
2022-10-22T01:35:10.630Z,99866.91
2022-10-22T01:38:18.284Z,99865.56
2022-10-22T01:41:21.550Z,99872.03
2022-10-22T01:44:28.176Z,99870.88
2022-10-22T01:47:44.199Z,99888.94
2022-10-22T01:51:04.115Z,99886.09
2022-10-22T01:54:17.151Z,99878.56
2022-10-22T01:57:30.908Z,99873.72
2022-10-22T02:00:39.555Z,99885.00
2022-10-22T02:03:47.741Z,99881.00
2022-10-22T02:06:54.219Z,99879.69
2022-10-22T02:09:58.951Z,99872.09
2022-10-22T02:13:03.299Z,99886.28
2022-10-22T02:16:10.206Z,99893.06
2022-10-22T02:19:20.275Z,99887.28
2022-10-22T02:22:23.419Z,99895.03
2022-10-22T02:25:31.280Z,99884.94
2022-10-22T02:28:38.964Z,99888.34
2022-10-22T02:31:45.447Z,99893.59
2022-10-22T02:34:50.222Z,99883.50
2022-10-22T02:37:56.732Z,99899.59
2022-10-22T02:41:00.338Z,99893.97
2022-10-22T02:44:03.514Z,99892.22
2022-10-22T02:47:07.769Z,99894.06
2022-10-22T02:50:11.358Z,99910.97
2022-10-22T02:53:14.274Z,99902.72
2022-10-22T02:56:17.550Z,99910.78
2022-10-22T02:59:20.629Z,99907.75
2022-10-22T03:02:24.820Z,99894.06
2022-10-22T03:05:27.940Z,99907.66
2022-10-22T03:08:30.695Z,99901.25
2022-10-22T03:11:33.826Z,99899.31
2022-10-22T03:14:36.626Z,99903.69
2022-10-22T03:17:41.420Z,99894.66
2022-10-22T03:20:44.441Z,99889.28
2022-10-22T03:23:47.975Z,99899.59
2022-10-22T03:26:53.442Z,99903.59
2022-10-22T03:29:57.998Z,99906.63
2022-10-22T03:33:02.038Z,99911.34
2022-10-22T03:36:05.519Z,99905.91
2022-10-22T03:39:09.417Z,99905.91
2022-10-22T03:42:13.343Z,99903.28
2022-10-22T03:45:16.452Z,99906.13
2022-10-22T03:48:20.491Z,99910.00
2022-10-22T03:51:23.626Z,99915.63
2022-10-22T03:54:26.460Z,99913.03
2022-10-22T03:57:29.730Z,99917.69
2022-10-22T04:00:32.907Z,99919.69
2022-10-22T04:03:38.149Z,99922.50
2022-10-22T04:06:41.081Z,99923.38
2022-10-22T04:09:43.757Z,99927.94
2022-10-22T04:12:48.555Z,99942.63
2022-10-22T04:15:51.932Z,99949.03
2022-10-22T04:18:56.334Z,99973.53
2022-10-22T04:21:59.722Z,99985.38
2022-10-22T04:25:03.094Z,99996.25
2022-10-22T04:28:07.636Z,100003.44
2022-10-22T04:31:12.162Z,100018.78
2022-10-22T04:34:16.325Z,100025.03
2022-10-22T04:37:19.412Z,100022.19
2022-10-22T04:40:22.535Z,100024.91
2022-10-22T04:43:25.686Z,100018.50
2022-10-22T04:46:32.477Z,100016.88
2022-10-22T04:49:38.579Z,100008.00
2022-10-22T04:52:41.274Z,100001.84
2022-10-22T04:55:44.007Z,99993.13
2022-10-22T04:58:47.445Z,99990.88
2022-10-22T05:01:50.158Z,99992.88
2022-10-22T05:04:54.695Z,99983.34
2022-10-22T05:07:57.850Z,99994.44
2022-10-22T05:11:00.568Z,99987.50
2022-10-22T05:14:06.394Z,100003.38
2022-10-22T05:17:09.130Z,100016.75
2022-10-22T05:20:14.042Z,100021.03
2022-10-22T05:23:16.798Z,100024.09
2022-10-22T05:26:21.933Z,100039.66
2022-10-22T05:29:25.179Z,100040.47
2022-10-22T05:32:28.413Z,100038.09
2022-10-22T05:35:32.485Z,100047.28
2022-10-22T05:38:36.549Z,100043.91
2022-10-22T05:41:39.657Z,100043.91
2022-10-22T05:44:42.475Z,100058.59
2022-10-22T05:47:45.183Z,100058.06
2022-10-22T05:50:51.751Z,100060.63
2022-10-22T05:53:56.193Z,100065.19
2022-10-22T05:56:59.339Z,100074.00
2022-10-22T06:00:02.087Z,100079.28
2022-10-22T06:03:05.383Z,100073.66
2022-10-22T06:06:20.587Z,100076.28
2022-10-22T06:09:25.941Z,100079.28
2022-10-22T06:12:28.758Z,100090.84
2022-10-22T06:15:32.127Z,100090.06
2022-10-22T06:18:35.198Z,100093.66
2022-10-22T06:21:39.799Z,100099.94
2022-10-22T06:24:45.060Z,100112.41
2022-10-22T06:27:51.521Z,100113.13
2022-10-22T06:30:54.432Z,100116.31
2022-10-22T06:33:58.411Z,100117.09
2022-10-22T06:37:02.535Z,100118.03
2022-10-22T06:40:06.225Z,100132.75
2022-10-22T06:43:08.942Z,100132.66
2022-10-22T06:46:14.834Z,100141.94
2022-10-22T06:49:21.643Z,100135.38
2022-10-22T06:52:26.340Z,100143.78
2022-10-22T06:55:29.190Z,100144.50
2022-10-22T06:58:31.980Z,100151.25
2022-10-22T07:01:36.811Z,100151.94
2022-10-22T07:04:39.569Z,100160.06
2022-10-22T07:07:43.997Z,100174.81
2022-10-22T07:10:46.680Z,100174.63
2022-10-22T07:13:50.219Z,100186.47
2022-10-22T07:16:53.463Z,100187.25
2022-10-22T07:19:56.201Z,100197.00
2022-10-22T07:23:00.277Z,100196.75
2022-10-22T07:26:04.086Z,100199.25
2022-10-22T07:29:07.380Z,100200.47
2022-10-22T07:32:10.466Z,100215.66
2022-10-22T07:35:13.219Z,100210.81
2022-10-22T07:38:17.716Z,100211.47
2022-10-22T07:41:20.440Z,100207.50
2022-10-22T07:44:23.295Z,100215.38
2022-10-22T07:47:26.011Z,100222.25
2022-10-22T07:50:28.878Z,100232.69
2022-10-22T07:53:33.528Z,100226.09
2022-10-22T07:56:36.370Z,100221.38
2022-10-22T07:59:39.163Z,100222.25
2022-10-22T08:02:42.394Z,100218.47
2022-10-22T08:05:45.757Z,100221.91
2022-10-22T08:08:50.238Z,100224.44
2022-10-22T08:11:52.993Z,100214.19
2022-10-22T08:14:56.247Z,100231.19
2022-10-22T08:17:58.997Z,100226.44
2022-10-22T08:21:02.948Z,100219.59
2022-10-22T08:27:10.532Z,100225.88
2022-10-22T08:30:14.264Z,100222.13
2022-10-22T08:33:17.087Z,100217.34
2022-10-22T08:36:19.792Z,100220.34
2022-10-22T08:39:25.231Z,100218.94
2022-10-22T08:42:48.273Z,100217.28
2022-10-22T08:46:01.083Z,100215.75
2022-10-22T08:52:19.787Z,100209.97
2022-10-22T08:55:25.802Z,100212.09
2022-10-22T08:58:37.389Z,100220.66
2022-10-22T09:01:44.386Z,100226.50
2022-10-22T09:04:58.340Z,100225.94
2022-10-22T09:08:02.112Z,100238.09
2022-10-22T09:11:15.078Z,100238.59
2022-10-22T09:14:20.584Z,100242.78
2022-10-22T09:17:29.337Z,100237.91
2022-10-22T09:20:42.341Z,100251.97
2022-10-22T09:23:58.274Z,100243.38
2022-10-22T09:27:04.348Z,100249.34
2022-10-22T09:30:08.470Z,100241.53
2022-10-22T09:33:19.190Z,100250.84
2022-10-22T09:36:24.623Z,100247.50
2022-10-22T09:39:29.804Z,100243.97
2022-10-22T09:42:35.050Z,100254.16
2022-10-22T09:45:37.784Z,100257.25
2022-10-22T09:48:44.078Z,100251.06
2022-10-22T09:51:52.180Z,100260.16
2022-10-22T09:54:54.909Z,100252.06
2022-10-22T09:58:02.213Z,100255.38
2022-10-22T10:01:05.047Z,100258.56
2022-10-22T10:04:11.081Z,100258.03
2022-10-22T10:07:18.958Z,100251.66
2022-10-22T10:10:34.151Z,100253.44
2022-10-22T10:13:48.070Z,100255.38
2022-10-22T10:16:58.946Z,100253.44
2022-10-22T10:20:14.571Z,100254.22
2022-10-22T10:23:28.084Z,100254.31
2022-10-22T10:26:39.686Z,100248.28
2022-10-22T10:29:55.568Z,100264.56
2022-10-22T10:33:17.569Z,100270.16
2022-10-22T10:36:29.066Z,100263.56
2022-10-22T10:39:40.432Z,100272.38
2022-10-22T10:42:48.041Z,100259.22
2022-10-22T10:46:02.509Z,100260.53
2022-10-22T10:49:11.070Z,100262.47
2022-10-22T10:52:21.605Z,100262.78
2022-10-22T10:55:31.419Z,100261.44
2022-10-22T10:58:47.167Z,100261.75
2022-10-22T11:02:17.377Z,100257.84
2022-10-22T11:05:38.423Z,100253.72
2022-10-22T11:08:46.615Z,100255.78
2022-10-22T11:11:53.907Z,100248.63
2022-10-22T11:15:03.370Z,100254.25
2022-10-22T11:18:17.102Z,100254.13
2022-10-22T11:21:27.383Z,100254.91
2022-10-22T11:24:37.098Z,100249.91
2022-10-22T11:27:46.991Z,100243.34
2022-10-22T11:30:56.064Z,100253.31
2022-10-22T11:34:28.578Z,100249.69
2022-10-22T11:37:34.863Z,100244.22
2022-10-22T11:40:39.417Z,100234.88
2022-10-22T11:43:58.392Z,100241.97
2022-10-22T11:47:16.392Z,100235.16
2022-10-22T11:50:25.321Z,100237.06
2022-10-22T11:53:33.132Z,100235.19
2022-10-22T11:56:40.317Z,100221.47
2022-10-22T11:59:49.584Z,100213.88
2022-10-22T12:03:04.468Z,100230.34
2022-10-22T12:06:21.024Z,100220.13
2022-10-22T12:09:27.394Z,100231.22
2022-10-22T12:12:39.401Z,100227.00
2022-10-22T12:15:49.145Z,100234.34
2022-10-22T12:18:58.499Z,100223.59
2022-10-22T12:22:14.806Z,100231.09
2022-10-22T12:25:22.584Z,100220.88
2022-10-22T12:28:25.325Z,100212.88
2022-10-22T12:31:29.426Z,100212.13
2022-10-22T12:34:32.171Z,100209.66
2022-10-22T12:37:38.658Z,100204.44
2022-10-22T12:40:45.964Z,100203.94
2022-10-22T12:44:00.026Z,100199.97
2022-10-22T12:47:03.585Z,100194.59
2022-10-22T12:50:07.152Z,100182.47
2022-10-22T12:53:16.365Z,100198.78
2022-10-22T12:56:23.238Z,100203.63
2022-10-22T12:59:28.862Z,100204.13
2022-10-22T13:02:31.878Z,100193.16
2022-10-22T13:05:39.147Z,100203.81
2022-10-22T13:08:44.350Z,100199.16
2022-10-22T13:11:54.125Z,100215.97
2022-10-22T13:14:57.025Z,100215.75
2022-10-22T13:18:04.196Z,100206.44
2022-10-22T13:21:06.972Z,100206.31
2022-10-22T13:24:23.883Z,100225.78
2022-10-22T13:27:28.282Z,100211.09
2022-10-22T13:30:33.688Z,100219.31
2022-10-22T13:33:39.084Z,100221.06
2022-10-22T13:36:42.034Z,100216.34
2022-10-22T13:39:46.283Z,100226.22
2022-10-22T13:42:49.410Z,100224.56
2022-10-22T13:45:55.341Z,100229.28
2022-10-22T13:48:59.038Z,100227.31
2022-10-22T13:52:01.951Z,100229.19
2022-10-22T13:55:15.639Z,100238.91
2022-10-22T13:58:21.358Z,100232.94
2022-10-22T14:01:25.913Z,100231.34
2022-10-22T14:04:28.747Z,100231.34
2022-10-22T14:07:31.459Z,100221.38
2022-10-22T14:10:36.027Z,100219.91
2022-10-22T14:13:38.834Z,100224.88
2022-10-22T14:16:41.864Z,100226.59
2022-10-22T14:19:46.541Z,100226.34
2022-10-22T14:22:51.232Z,100233.22
2022-10-22T14:25:55.563Z,100235.56
2022-10-22T14:29:14.387Z,100239.16
2022-10-22T14:32:20.278Z,100234.50
2022-10-22T14:35:23.745Z,100240.38
2022-10-22T14:38:26.616Z,100245.69
2022-10-22T14:41:31.091Z,100251.22
2022-10-22T14:44:33.787Z,100251.16
2022-10-22T14:47:36.514Z,100251.97
2022-10-22T14:50:39.619Z,100262.53
2022-10-22T14:53:42.984Z,100256.75
2022-10-22T14:56:47.009Z,100261.84
2022-10-22T14:59:50.311Z,100269.97
2022-10-22T15:02:55.666Z,100277.00
2022-10-22T15:05:58.606Z,100281.06
2022-10-22T15:09:01.394Z,100281.28
2022-10-22T15:12:06.242Z,100287.00
2022-10-22T15:15:09.737Z,100281.97
2022-10-22T15:18:12.525Z,100280.66
2022-10-22T15:21:16.945Z,100281.13
2022-10-22T15:24:19.678Z,100280.81
2022-10-22T15:27:23.818Z,100283.19
2022-10-22T15:30:26.517Z,100278.25
2022-10-22T15:33:30.426Z,100281.34
2022-10-22T15:36:33.321Z,100287.91
2022-10-22T15:39:36.416Z,100285.47
2022-10-22T15:42:40.855Z,100289.63
2022-10-22T15:45:43.870Z,100295.00
2022-10-22T15:48:47.356Z,100303.19
2022-10-22T15:51:50.945Z,100293.75
2022-10-22T15:54:53.770Z,100302.47
2022-10-22T15:58:00.556Z,100293.06
2022-10-22T16:01:07.366Z,100298.84
2022-10-22T16:04:10.442Z,100307.47
2022-10-22T16:07:13.360Z,100309.72
2022-10-22T16:10:16.404Z,100302.16
2022-10-22T16:13:21.763Z,100301.88
2022-10-22T16:16:25.153Z,100314.31
2022-10-22T16:19:28.355Z,100304.19
2022-10-22T16:22:31.352Z,100313.19
2022-10-22T16:25:38.909Z,100314.19
2022-10-22T16:28:44.282Z,100321.50
2022-10-22T16:31:47.326Z,100316.75
2022-10-22T16:34:50.099Z,100315.75
2022-10-22T16:37:52.799Z,100319.91
2022-10-22T16:40:55.838Z,100318.75
2022-10-22T16:44:02.338Z,100322.94
2022-10-22T16:47:05.084Z,100325.16
2022-10-22T16:50:08.700Z,100319.31
2022-10-22T16:53:11.779Z,100328.81
2022-10-22T16:56:16.237Z,100340.19
2022-10-22T16:59:20.532Z,100344.25
2022-10-22T17:02:23.277Z,100345.78
2022-10-22T17:05:26.500Z,100347.00
2022-10-22T17:08:29.715Z,100347.47
2022-10-22T17:11:37.040Z,100350.56
2022-10-22T17:14:43.685Z,100358.13
2022-10-22T17:17:50.874Z,100357.50
2022-10-22T17:20:56.497Z,100358.38
2022-10-22T17:23:59.964Z,100359.88
2022-10-22T17:30:11.734Z,100369.53
2022-10-22T17:33:14.797Z,100361.81
2022-10-22T17:36:19.220Z,100371.25
2022-10-22T17:39:22.173Z,100376.09
2022-10-22T17:42:24.943Z,100380.06
2022-10-22T17:45:29.135Z,100388.53
2022-10-22T17:48:32.137Z,100390.72
2022-10-22T17:51:35.039Z,100400.03
2022-10-22T17:54:38.541Z,100391.22
2022-10-22T17:57:41.404Z,100396.88
2022-10-22T18:00:45.673Z,100401.94
2022-10-22T18:03:48.724Z,100397.72
2022-10-22T18:06:51.490Z,100402.50
2022-10-22T18:09:54.535Z,100408.19
2022-10-22T18:12:57.567Z,100404.19
2022-10-22T18:16:02.050Z,100410.53
2022-10-22T18:19:05.659Z,100418.81
2022-10-22T18:22:08.698Z,100412.75
2022-10-22T18:25:13.395Z,100415.63
2022-10-22T18:28:18.047Z,100424.94
2022-10-22T18:31:25.044Z,100421.31
2022-10-22T18:34:29.516Z,100425.97
2022-10-22T18:37:32.997Z,100426.91
2022-10-22T18:40:36.702Z,100420.78
2022-10-22T18:43:39.428Z,100410.38
2022-10-22T18:46:43.827Z,100418.53
2022-10-22T18:49:47.486Z,100410.53
2022-10-22T18:52:50.176Z,100413.59
2022-10-22T18:55:53.275Z,100409.31
2022-10-22T18:58:56.007Z,100405.94
2022-10-22T19:02:00.491Z,100412.56
2022-10-22T19:05:03.312Z,100406.09
2022-10-22T19:08:06.535Z,100411.47
2022-10-22T19:11:11.254Z,100402.53
2022-10-22T19:14:19.222Z,100402.81
2022-10-22T19:17:24.303Z,100397.22
2022-10-22T19:20:27.141Z,100398.72
2022-10-22T19:23:31.612Z,100403.78
2022-10-22T19:26:34.665Z,100410.25
2022-10-22T19:29:37.571Z,100417.56
2022-10-22T19:32:41.878Z,100408.72
2022-10-22T19:35:45.079Z,100416.00
2022-10-22T19:38:49.487Z,100424.19
2022-10-22T19:41:52.519Z,100428.75
2022-10-22T19:44:55.186Z,100420.75
2022-10-22T19:47:59.575Z,100425.41
2022-10-22T19:51:04.151Z,100416.44
2022-10-22T19:54:09.507Z,100398.13
2022-10-22T19:57:16.269Z,100422.81
2022-10-22T20:00:19.702Z,100424.66
2022-10-22T20:03:24.093Z,100421.69
2022-10-22T20:06:27.183Z,100419.09
2022-10-22T20:09:29.924Z,100419.22
2022-10-22T20:12:32.845Z,100423.06
2022-10-22T20:15:36.460Z,100424.97
2022-10-22T20:18:41.162Z,100424.41
2022-10-22T20:21:44.821Z,100427.19
2022-10-22T20:24:47.520Z,100428.00
2022-10-22T20:27:50.678Z,100437.22
2022-10-22T20:30:54.851Z,100430.22
2022-10-22T20:34:01.939Z,100441.84
2022-10-22T20:37:04.743Z,100438.34
2022-10-22T20:40:09.068Z,100453.75
2022-10-22T20:43:12.458Z,100449.34
2022-10-22T20:46:18.900Z,100449.47
2022-10-22T20:49:23.282Z,100447.81
2022-10-22T20:52:25.997Z,100446.13
2022-10-22T20:55:29.035Z,100449.78
2022-10-22T20:58:32.011Z,100451.75
2022-10-22T21:01:39.238Z,100456.41
2022-10-22T21:04:45.583Z,100460.94
2022-10-22T21:07:49.565Z,100448.00
2022-10-22T21:10:52.633Z,100439.13
2022-10-22T21:13:55.359Z,100431.75
2022-10-22T21:16:59.564Z,100436.16
2022-10-22T21:20:03.898Z,100433.00
2022-10-22T21:23:07.139Z,100442.25
2022-10-22T21:26:09.930Z,100430.72
2022-10-22T21:29:14.119Z,100427.19
2022-10-22T21:32:16.893Z,100428.94
2022-10-22T21:35:21.389Z,100429.13
2022-10-22T21:38:25.411Z,100428.28
2022-10-22T21:41:28.587Z,100420.28
2022-10-22T21:44:31.670Z,100390.53
2022-10-22T21:47:34.399Z,100428.59
2022-10-22T21:50:41.803Z,100422.34
2022-10-22T21:53:45.307Z,100415.16
2022-10-22T21:56:49.346Z,100423.38
2022-10-22T21:59:52.031Z,100419.00
2022-10-22T22:02:55.431Z,100413.09
2022-10-22T22:06:00.551Z,100418.03
2022-10-22T22:09:05.295Z,100416.63
2022-10-22T22:12:09.017Z,100428.78
2022-10-22T22:15:11.982Z,100418.19
2022-10-22T22:18:14.702Z,100412.00
2022-10-22T22:21:21.428Z,100426.66
2022-10-22T22:24:24.198Z,100419.59
2022-10-22T22:27:27.282Z,100420.66
2022-10-22T22:30:30.603Z,100424.38
2022-10-22T22:33:33.415Z,100425.38
2022-10-22T22:36:39.923Z,100422.75
2022-10-22T22:39:42.687Z,100422.84
2022-10-22T22:42:45.846Z,100424.75
2022-10-22T22:45:48.941Z,100431.25
2022-10-22T22:48:52.165Z,100425.78
2022-10-22T22:51:56.278Z,100433.13
2022-10-22T22:54:59.004Z,100429.44
2022-10-22T22:58:02.251Z,100424.28
2022-10-22T23:01:13.483Z,100419.88
2022-10-22T23:04:19.643Z,100422.59
2022-10-22T23:07:23.719Z,100418.06
2022-10-22T23:10:26.516Z,100416.16
2022-10-22T23:13:29.366Z,100413.44
2022-10-22T23:16:34.438Z,100411.56
2022-10-22T23:19:37.145Z,100413.31
2022-10-22T23:22:41.627Z,100407.03
2022-10-22T23:25:44.549Z,100402.56
2022-10-22T23:28:47.677Z,100398.81
2022-10-22T23:31:51.068Z,100396.78
2022-10-22T23:34:53.731Z,100389.47
2022-10-22T23:37:57.911Z,100393.13
2022-10-22T23:41:00.811Z,100389.31
2022-10-22T23:44:03.868Z,100383.63
2022-10-22T23:47:06.659Z,100383.41
2022-10-22T23:50:09.458Z,100373.38
2022-10-22T23:53:13.621Z,100387.59
2022-10-22T23:56:18.965Z,100364.56
2022-10-22T23:59:22.011Z,100374.09
